Time;durP1;ratioP1;P1;durP2;ratioP2;P2;SDS_P1;SDS_P2;PMS_P1;PMS_P2;Temp;Humidity;BMP_temperature;BMP_pressure;BME280_temperature;BME280_humidity;BME280_pressure;Samples;Min_cycle;Max_cycle;Signal;HPM_P1;HPM_P2
2023/06/12 00:01:40;;;;;;;5.63;4.82;;;20.70;81.40;;;;;;5112291;28;20479;-51
2023/06/12 00:04:06;;;;;;;12.35;5.05;;;20.70;81.60;;;;;;5112397;28;20491;-54
2023/06/12 00:06:32;;;;;;;5.97;5.45;;;20.60;81.80;;;;;;5112506;28;20364;-49
2023/06/12 00:08:59;;;;;;;7.30;5.97;;;20.60;82.00;;;;;;5112706;28;20084;-49
2023/06/12 00:11:25;;;;;;;7.03;5.63;;;20.60;82.30;;;;;;5112230;28;20020;-50
2023/06/12 00:13:51;;;;;;;8.00;5.60;;;20.50;82.50;;;;;;5112168;28;20050;-49
2023/06/12 00:16:16;;;;;;;6.95;5.32;;;20.40;82.80;;;;;;5112380;28;20369;-48
2023/06/12 00:18:43;;;;;;;6.90;5.78;;;20.40;83.10;;;;;;5112461;28;20066;-50
2023/06/12 00:21:10;;;;;;;8.70;5.80;;;20.40;83.40;;;;;;5112350;28;20031;-49
2023/06/12 00:23:40;;;;;;;8.68;5.88;;;20.40;83.70;;;;;;5111721;28;20028;-52
2023/06/12 00:26:06;;;;;;;6.70;6.03;;;20.30;84.10;;;;;;5112271;28;20449;-48
2023/06/12 00:28:32;;;;;;;8.15;6.03;;;20.30;84.60;;;;;;5112214;28;20153;-49
2023/06/12 00:30:58;;;;;;;8.48;6.15;;;20.20;85.20;;;;;;5112373;28;20016;-50
2023/06/12 00:33:24;;;;;;;10.60;5.90;;;20.20;85.50;;;;;;5111775;28;20080;-48
2023/06/12 00:35:51;;;;;;;9.95;5.82;;;20.10;86.30;;;;;;5112101;28;20019;-50
2023/06/12 00:38:17;;;;;;;6.72;5.50;;;20.10;87.00;;;;;;5112058;28;20023;-50
2023/06/12 00:40:43;;;;;;;10.77;5.75;;;20.00;87.60;;;;;;5112057;28;20016;-53
2023/06/12 00:43:09;;;;;;;8.45;6.15;;;19.90;88.20;;;;;;5111704;28;20024;-51
2023/06/12 00:45:35;;;;;;;16.67;6.30;;;19.90;88.70;;;;;;5111512;28;20019;-51
2023/06/12 00:48:01;;;;;;;6.88;5.60;;;19.90;89.30;;;;;;5093511;28;20027;-53
2023/06/12 00:50:27;;;;;;;9.40;6.45;;;19.90;89.70;;;;;;5111916;28;20068;-52
2023/06/12 00:52:54;;;;;;;8.30;6.13;;;19.80;90.10;;;;;;5111619;28;20023;-54
2023/06/12 00:55:21;;;;;;;6.70;5.65;;;19.80;90.40;;;;;;5111617;28;20153;-55
2023/06/12 00:57:47;;;;;;;6.95;6.07;;;19.80;90.70;;;;;;5110866;28;20055;-48
2023/06/12 01:00:14;;;;;;;9.25;5.85;;;19.70;90.90;;;;;;5111658;28;20019;-49
2023/06/12 01:02:51;;;;;;;11.63;7.93;;;19.70;91.00;;;;;;5110782;28;20024;-49
2023/06/12 01:05:32;;;;;;;9.57;5.93;;;19.70;91.20;;;;;;5111112;28;20043;-51
2023/06/12 01:08:01;;;;;;;7.40;6.53;;;19.70;91.40;;;;;;5111477;28;20027;-49
2023/06/12 01:10:39;;;;;;;8.05;6.13;;;19.70;91.50;;;;;;5111592;28;20019;-47
2023/06/12 01:13:05;;;;;;;8.43;6.53;;;19.70;91.70;;;;;;5111385;28;20388;-50
2023/06/12 01:15:31;;;;;;;13.80;6.57;;;19.70;91.80;;;;;;5111168;28;20041;-52
2023/06/12 01:17:58;;;;;;;8.43;6.13;;;19.70;91.90;;;;;;5111426;28;20028;-50
2023/06/12 01:20:24;;;;;;;12.95;6.53;;;19.80;92.40;;;;;;5111432;28;20100;-52
2023/06/12 01:22:59;;;;;;;7.10;6.40;;;19.70;92.00;;;;;;5111129;28;20019;-56
2023/06/12 01:26:02;;;;;;;8.03;5.93;;;19.70;92.20;;;;;;5111141;28;20023;-50
2023/06/12 01:28:59;;;;;;;9.98;6.38;;;19.70;92.30;;;;;;5111424;28;20268;-48
2023/06/12 01:31:45;;;;;;;7.80;6.10;;;19.70;92.40;;;;;;5111014;28;20534;-49
2023/06/12 01:34:20;;;;;;;11.80;6.43;;;19.70;92.60;;;;;;5111049;28;20503;-50
2023/06/12 01:36:53;;;;;;;10.57;6.23;;;19.70;92.40;;;;;;5111258;28;20062;-50
2023/06/12 01:39:20;;;;;;;7.03;5.70;;;19.70;92.40;;;;;;5093134;28;20127;-52
2023/06/12 01:41:46;;;;;;;7.43;5.78;;;19.60;92.50;;;;;;5092651;28;20057;-50
2023/06/12 01:44:12;;;;;;;7.85;5.82;;;19.70;92.50;;;;;;5110945;28;20030;-50
2023/06/12 01:46:37;;;;;;;6.72;6.05;;;19.60;92.50;;;;;;5111062;28;20032;-51
2023/06/12 01:49:06;;;;;;;10.68;6.55;;;19.60;92.60;;;;;;5111255;28;20062;-54
2023/06/12 01:51:32;;;;;;;6.28;5.68;;;19.70;92.60;;;;;;5110862;28;20027;-51
2023/06/12 01:53:58;;;;;;;6.93;6.22;;;19.70;92.60;;;;;;5110870;28;20543;-52
2023/06/12 01:56:27;;;;;;;6.55;5.95;;;19.60;92.60;;;;;;5111238;28;20036;-56
2023/06/12 01:58:53;;;;;;;8.93;6.10;;;19.60;92.80;;;;;;5110251;28;20020;-46
2023/06/12 02:01:19;;;;;;;6.35;5.53;;;19.50;93.10;;;;;;5110969;28;20589;-54
2023/06/12 02:03:48;;;;;;;8.10;6.57;;;19.40;93.30;;;;;;5110852;28;20031;-52
2023/06/12 02:06:15;;;;;;;7.38;5.80;;;19.40;93.50;;;;;;5111036;28;20556;-53
2023/06/12 02:08:41;;;;;;;6.82;5.82;;;19.30;93.70;;;;;;5111264;28;20028;-50
2023/06/12 02:11:06;;;;;;;6.05;5.28;;;19.20;93.90;;;;;;5111225;28;20365;-53
2023/06/12 02:13:32;;;;;;;8.77;5.80;;;19.20;94.10;;;;;;5113127;28;20088;-54
2023/06/12 02:15:57;;;;;;;6.50;5.78;;;19.10;94.20;;;;;;5114717;28;20020;-51
2023/06/12 02:18:23;;;;;;;9.95;6.32;;;19.10;94.50;;;;;;5114524;28;20031;-49
2023/06/12 02:20:49;;;;;;;6.65;5.88;;;19.00;94.50;;;;;;5114521;28;20039;-50
2023/06/12 02:23:15;;;;;;;7.32;6.10;;;18.90;94.40;;;;;;5114420;28;20080;-51
2023/06/12 02:25:40;;;;;;;7.50;6.22;;;18.90;94.30;;;;;;5114241;28;20027;-50
2023/06/12 02:28:06;;;;;;;7.32;5.40;;;18.80;94.50;;;;;;5114552;28;20028;-48
2023/06/12 02:30:32;;;;;;;6.75;5.43;;;18.80;94.40;;;;;;5114462;28;20099;-49
2023/06/12 02:32:57;;;;;;;9.55;5.28;;;18.70;94.40;;;;;;5114082;28;20107;-49
2023/06/12 02:35:23;;;;;;;6.43;5.70;;;18.70;94.60;;;;;;5114102;28;20099;-54
2023/06/12 02:37:48;;;;;;;6.80;6.10;;;18.70;94.50;;;;;;5114581;28;20034;-51
2023/06/12 02:40:13;;;;;;;6.57;5.90;;;18.70;94.40;;;;;;5114289;28;20058;-53
2023/06/12 02:42:39;;;;;;;6.63;5.65;;;18.60;94.50;;;;;;5114075;28;20024;-54
2023/06/12 02:45:05;;;;;;;6.57;5.93;;;18.50;94.50;;;;;;5114128;28;20024;-48
2023/06/12 02:47:31;;;;;;;9.80;6.43;;;18.40;94.70;;;;;;5114021;28;20358;-49
2023/06/12 02:49:56;;;;;;;6.65;5.50;;;18.30;95.10;;;;;;5114243;28;20020;-48
2023/06/12 02:52:22;;;;;;;6.75;5.93;;;18.30;95.10;;;;;;5113923;28;20031;-53
2023/06/12 02:54:47;;;;;;;7.65;6.50;;;18.30;95.20;;;;;;5113756;28;20382;-52
2023/06/12 02:57:14;;;;;;;6.75;6.05;;;18.30;95.10;;;;;;5113980;28;20034;-52
2023/06/12 02:59:40;;;;;;;8.02;6.00;;;18.30;95.20;;;;;;5112964;28;20019;-54
2023/06/12 03:02:06;;;;;;;6.10;5.43;;;18.30;95.20;;;;;;5113502;28;20047;-52
2023/06/12 03:04:32;;;;;;;9.57;5.45;;;18.20;95.20;;;;;;5113631;28;20023;-53
2023/06/12 03:06:58;;;;;;;8.00;5.40;;;18.10;95.10;;;;;;5113813;28;20031;-50
2023/06/12 03:09:24;;;;;;;6.65;6.05;;;18.10;95.40;;;;;;5113858;28;20016;-51
2023/06/12 03:11:52;;;;;;;7.25;5.57;;;18.10;95.20;;;;;;5113407;28;20062;-52
2023/06/12 03:14:21;;;;;;;6.88;6.07;;;18.10;95.10;;;;;;5113305;28;20030;-54
2023/06/12 03:16:48;;;;;;;7.90;6.03;;;18.10;95.00;;;;;;5113412;28;20031;-50
2023/06/12 03:19:14;;;;;;;7.25;5.78;;;18.10;95.00;;;;;;5113808;28;20080;-50
2023/06/12 03:21:39;;;;;;;8.82;6.07;;;18.10;95.00;;;;;;5095251;28;20035;-50
2023/06/12 03:24:05;;;;;;;8.88;6.25;;;18.20;95.00;;;;;;5094428;28;20380;-51
2023/06/12 03:26:33;;;;;;;6.75;5.78;;;18.20;95.00;;;;;;5113279;28;20031;-52
2023/06/12 03:29:00;;;;;;;7.50;5.78;;;18.20;94.80;;;;;;5113845;28;20057;-50
2023/06/12 03:31:27;;;;;;;6.22;5.60;;;18.30;94.70;;;;;;5113148;28;20098;-49
2023/06/12 03:33:56;;;;;;;6.90;6.15;;;18.30;94.60;;;;;;5113079;28;20023;-48
2023/06/12 03:36:23;;;;;;;8.70;7.05;;;18.30;94.40;;;;;;5113227;28;20498;-53
2023/06/12 03:38:49;;;;;;;8.48;5.70;;;18.40;94.40;;;;;;5113182;28;20035;-51
2023/06/12 03:41:14;;;;;;;9.18;6.38;;;18.40;94.30;;;;;;5095000;28;20024;-52
2023/06/12 03:43:40;;;;;;;9.35;5.95;;;18.50;94.20;;;;;;5112370;28;20027;-48
2023/06/12 03:46:05;;;;;;;9.38;6.40;;;18.50;94.20;;;;;;5112818;28;20084;-52
2023/06/12 03:48:31;;;;;;;7.80;6.03;;;18.40;94.20;;;;;;5094684;28;20372;-48
2023/06/12 03:50:56;;;;;;;7.03;5.63;;;18.40;94.20;;;;;;5113011;28;20076;-49
2023/06/12 03:53:22;;;;;;;7.20;5.53;;;18.40;94.30;;;;;;5112279;28;20114;-49
2023/06/12 03:55:47;;;;;;;9.82;5.80;;;18.30;94.40;;;;;;5113342;28;20024;-53
2023/06/12 03:58:16;;;;;;;6.63;5.93;;;18.30;94.60;;;;;;5111876;28;20121;-51
2023/06/12 04:00:47;;;;;;;7.70;6.35;;;18.40;94.50;;;;;;5094449;28;20023;-54
2023/06/12 04:03:21;;;;;;;9.48;6.70;;;18.40;94.50;;;;;;5112499;28;20020;-48
2023/06/12 04:05:48;;;;;;;6.45;5.85;;;18.40;94.50;;;;;;5112758;28;20440;-54
2023/06/12 04:08:13;;;;;;;6.90;5.90;;;18.50;94.70;;;;;;5112640;28;20028;-49
2023/06/12 04:10:40;;;;;;;8.23;5.95;;;18.50;94.50;;;;;;5094626;28;20026;-49
2023/06/12 04:13:06;;;;;;;6.70;5.47;;;18.60;94.40;;;;;;5112291;28;20026;-50
2023/06/12 04:15:31;;;;;;;7.03;5.63;;;18.60;94.30;;;;;;5112184;28;20130;-50
2023/06/12 04:17:57;;;;;;;11.98;5.40;;;18.70;94.30;;;;;;5112444;28;20042;-49
2023/06/12 04:20:23;;;;;;;6.35;5.72;;;18.80;94.20;;;;;;5112540;28;20402;-50
2023/06/12 04:22:49;;;;;;;9.23;5.85;;;18.80;94.00;;;;;;5112048;28;20057;-52
2023/06/12 04:25:15;;;;;;;10.82;6.75;;;18.90;93.90;;;;;;5111996;28;20020;-48
2023/06/12 04:27:42;;;;;;;8.00;6.25;;;19.00;93.90;;;;;;5093931;28;20038;-53
2023/06/12 04:30:09;;;;;;;11.77;5.75;;;19.10;93.60;;;;;;5112137;28;20058;-48
2023/06/12 04:32:34;;;;;;;6.82;6.10;;;19.20;93.50;;;;;;5093396;28;20019;-48
2023/06/12 04:35:01;;;;;;;6.43;5.80;;;19.20;93.40;;;;;;5111563;28;20376;-49
2023/06/12 04:37:27;;;;;;;8.57;6.35;;;19.40;93.20;;;;;;5111957;28;20076;-54
2023/06/12 04:39:53;;;;;;;6.88;5.78;;;19.40;93.20;;;;;;5093672;28;20107;-47
2023/06/12 04:42:18;;;;;;;8.43;6.10;;;19.60;93.00;;;;;;5111518;28;20115;-48
2023/06/12 04:44:46;;;;;;;6.00;5.45;;;19.70;92.80;;;;;;5111914;28;20023;-50
2023/06/12 04:47:14;;;;;;;9.82;6.20;;;19.80;92.70;;;;;;5111787;28;20059;-50
2023/06/12 04:49:41;;;;;;;9.30;5.82;;;20.00;92.60;;;;;;5111754;28;20019;-50
2023/06/12 04:52:08;;;;;;;8.02;5.82;;;20.20;92.40;;;;;;5111439;28;20023;-47
2023/06/12 04:54:35;;;;;;;6.65;5.93;;;20.60;92.00;;;;;;5111544;28;20039;-49
2023/06/12 04:57:07;;;;;;;6.78;5.25;;;21.00;91.50;;;;;;5093506;28;20542;-47
2023/06/12 04:59:38;;;;;;;7.32;5.20;;;21.80;90.40;;;;;;5110730;28;20027;-52
2023/06/12 05:02:06;;;;;;;5.85;5.35;;;22.40;88.30;;;;;;5111448;28;20020;-55
2023/06/12 05:04:32;;;;;;;8.57;5.80;;;22.80;86.70;;;;;;5111561;28;20450;-48
2023/06/12 05:06:59;;;;;;;7.28;5.03;;;23.30;85.10;;;;;;5111507;28;20433;-48
2023/06/12 05:09:25;;;;;;;6.70;4.90;;;23.90;83.90;;;;;;5111873;28;20065;-54
2023/06/12 05:11:51;;;;;;;6.22;5.63;;;24.30;82.60;;;;;;5111755;28;20367;-48
2023/06/12 05:14:16;;;;;;;9.60;5.43;;;24.80;85.30;;;;;;5111256;28;20028;-50
2023/06/12 05:16:46;;;;;;;5.78;5.28;;;25.00;80.20;;;;;;5105812;22;20503;31
2023/06/12 05:19:13;;;;;;;9.13;5.57;;;25.10;79.80;;;;;;4995710;28;20046;-48
2023/06/12 05:21:41;;;;;;;8.57;5.70;;;25.30;79.30;;;;;;5016738;28;20076;-48
2023/06/12 05:24:07;;;;;;;5.88;4.97;;;25.30;78.50;;;;;;5016462;28;20466;-49
2023/06/12 05:26:33;;;;;;;6.88;4.72;;;25.50;78.20;;;;;;5015863;28;20083;-51
2023/06/12 05:28:58;;;;;;;6.78;5.80;;;25.70;77.30;;;;;;5016613;28;20483;-53
2023/06/12 05:31:24;;;;;;;5.97;5.10;;;25.80;76.90;;;;;;5016158;28;20022;-49
2023/06/12 05:33:49;;;;;;;6.93;4.82;;;26.00;76.40;;;;;;5015787;28;20049;-55
2023/06/12 05:36:15;;;;;;;5.32;4.72;;;26.00;76.60;;;;;;5016708;28;20036;-56
2023/06/12 05:38:46;;;;;;;6.30;4.85;;;26.10;76.40;;;;;;4998561;28;20022;-49
2023/06/12 05:41:12;;;;;;;6.88;4.75;;;26.40;75.90;;;;;;5016468;28;20048;-54
2023/06/12 05:43:38;;;;;;;7.00;4.55;;;26.60;75.40;;;;;;4998271;28;20022;-57
2023/06/12 05:46:04;;;;;;;5.32;4.70;;;26.50;74.90;;;;;;5016460;28;20036;-55
2023/06/12 05:48:30;;;;;;;5.03;4.47;;;26.50;74.90;;;;;;5020650;28;20026;-54
2023/06/12 05:50:56;;;;;;;7.32;5.03;;;26.30;75.40;;;;;;5022248;28;20025;-50
2023/06/12 05:53:21;;;;;;;9.80;5.30;;;26.40;75.50;;;;;;5021122;28;20022;-52
2023/06/12 05:55:47;;;;;;;5.10;4.70;;;26.50;74.90;;;;;;5023218;28;20029;-53
2023/06/12 05:58:12;;;;;;;8.60;5.30;;;26.70;74.70;;;;;;5021186;28;20033;-52
2023/06/12 06:00:38;;;;;;;9.40;4.95;;;26.60;74.50;;;;;;5023321;28;20040;-50
2023/06/12 06:03:04;;;;;;;7.03;4.90;;;26.40;74.20;;;;;;5021426;28;20085;-54
2023/06/12 06:05:30;;;;;;;5.85;4.70;;;26.30;74.50;;;;;;5019106;28;20032;-52
2023/06/12 06:07:55;;;;;;;7.40;4.97;;;26.20;75.00;;;;;;5020563;28;20026;-51
2023/06/12 06:10:21;;;;;;;5.50;5.00;;;26.40;74.50;;;;;;5020374;28;20030;-55
2023/06/12 06:12:46;;;;;;;6.72;5.13;;;26.30;74.60;;;;;;5019858;28;20053;-54
2023/06/12 06:15:12;;;;;;;6.95;4.95;;;26.30;74.50;;;;;;5020582;28;20269;-52
2023/06/12 06:17:38;;;;;;;6.80;4.60;;;26.70;74.80;;;;;;5020229;28;20042;-54
2023/06/12 06:20:05;;;;;;;5.35;4.85;;;26.90;73.50;;;;;;5019989;28;20080;-53
2023/06/12 06:22:31;;;;;;;5.40;4.90;;;26.60;73.90;;;;;;5020247;28;20037;-55
2023/06/12 06:24:57;;;;;;;8.18;5.68;;;26.70;73.40;;;;;;5021464;28;20034;-51
2023/06/12 06:27:22;;;;;;;8.98;4.70;;;26.60;73.90;;;;;;5022237;28;20034;-51
2023/06/12 06:29:48;;;;;;;5.38;4.85;;;26.40;74.40;;;;;;5022509;28;20402;-50
2023/06/12 06:32:14;;;;;;;7.50;5.13;;;26.60;73.90;;;;;;5021424;28;20069;-52
2023/06/12 06:34:39;;;;;;;6.13;4.90;;;26.30;74.60;;;;;;5021071;28;20053;-53
2023/06/12 06:37:05;;;;;;;5.38;4.88;;;26.20;74.90;;;;;;5021091;28;20050;-51
2023/06/12 06:39:30;;;;;;;7.28;4.68;;;26.40;75.20;;;;;;5022022;28;20082;-48
2023/06/12 06:41:56;;;;;;;6.57;4.88;;;26.80;75.10;;;;;;5020409;28;20059;-51
2023/06/12 06:44:21;;;;;;;5.78;4.70;;;27.10;74.00;;;;;;5021080;28;20049;-49
2023/06/12 06:46:47;;;;;;;11.48;5.40;;;27.40;73.30;;;;;;5021086;28;20037;-48
2023/06/12 06:49:13;;;;;;;6.50;4.32;;;27.70;72.90;;;;;;5008786;28;20075;-47
2023/06/12 06:51:38;;;;;;;5.38;4.40;;;28.00;72.00;;;;;;5013443;28;20108;-47
2023/06/12 06:54:04;;;;;;;6.63;4.53;;;28.00;72.70;;;;;;5015411;28;20022;-54
2023/06/12 06:56:30;;;;;;;8.35;4.95;;;28.20;71.90;;;;;;5001623;28;20034;-48
2023/06/12 06:58:55;;;;;;;10.90;5.88;;;27.90;72.60;;;;;;5001480;28;20053;-51
2023/06/12 07:01:21;;;;;;;4.90;4.50;;;28.20;72.70;;;;;;5002002;28;20034;-58
2023/06/12 07:03:46;;;;;;;10.50;4.75;;;27.70;72.40;;;;;;5020640;28;20381;-49
2023/06/12 07:06:12;;;;;;;6.07;5.00;;;27.90;72.60;;;;;;5007790;28;20517;-48
2023/06/12 07:08:37;;;;;;;4.95;4.55;;;27.80;72.20;;;;;;5015235;28;20026;-48
2023/06/12 07:11:03;;;;;;;5.70;4.55;;;27.80;72.50;;;;;;5013406;28;20571;-53
2023/06/12 07:13:28;;;;;;;5.18;4.53;;;27.40;73.00;;;;;;4997464;28;20521;-46
2023/06/12 07:15:54;;;;;;;10.60;4.65;;;27.50;73.10;;;;;;4998407;28;20372;-51
2023/06/12 07:18:20;;;;;;;6.50;4.60;;;27.70;73.40;;;;;;4997234;28;20034;-50
2023/06/12 07:20:45;;;;;;;8.75;5.00;;;28.30;72.80;;;;;;4998344;28;20513;-49
2023/06/12 07:23:11;;;;;;;8.10;4.85;;;28.90;72.00;;;;;;4996681;28;20415;-46
2023/06/12 07:25:37;;;;;;;6.63;4.78;;;28.80;71.50;;;;;;5020235;28;20030;-45
2023/06/12 07:28:03;;;;;;;14.80;4.70;;;28.70;71.90;;;;;;5012469;28;20037;-44
2023/06/12 07:30:28;;;;;;;6.72;5.13;;;28.60;71.50;;;;;;5016704;28;20104;-49
2023/06/12 07:32:54;;;;;;;5.72;4.72;;;28.70;71.60;;;;;;5001686;28;20035;-51
2023/06/12 07:35:20;;;;;;;4.97;4.63;;;28.80;71.80;;;;;;4996334;28;20422;-47
2023/06/12 07:37:45;;;;;;;6.82;4.97;;;28.70;71.20;;;;;;4996765;28;20022;-50
2023/06/12 07:40:11;;;;;;;8.15;5.32;;;28.90;72.00;;;;;;4996853;28;20035;-48
2023/06/12 07:42:37;;;;;;;7.53;5.00;;;29.00;71.30;;;;;;4996417;28;20402;-47
2023/06/12 07:45:03;;;;;;;9.13;4.50;;;29.00;71.40;;;;;;5010671;28;20034;-52
2023/06/12 07:47:28;;;;;;;5.03;4.53;;;29.20;70.90;;;;;;5016463;28;20112;-51
2023/06/12 07:49:54;;;;;;;8.32;4.82;;;29.30;70.90;;;;;;5007799;28;20123;-50
2023/06/12 07:52:20;;;;;;;5.15;4.45;;;29.10;71.50;;;;;;4993303;28;20030;-45
2023/06/12 07:54:47;;;;;;;17.52;11.88;;;;;;;;;;4993425;28;20019;-49
2023/06/12 07:57:12;;;;;;;7.95;5.65;;;30.30;70.00;;;;;;5014027;28;20049;-52
2023/06/12 07:59:38;;;;;;;5.05;4.65;;;30.20;70.40;;;;;;5032622;28;20036;-48
2023/06/12 08:02:03;;;;;;;11.55;4.95;;;29.60;70.20;;;;;;5032724;28;20489;-48
2023/06/12 08:04:29;;;;;;;8.40;5.20;;;29.80;71.10;;;;;;5032092;28;20076;-49
2023/06/12 08:06:55;;;;;;;5.30;4.72;;;30.10;70.20;;;;;;5035395;28;20032;-47
2023/06/12 08:09:20;;;;;;;5.55;5.00;;;30.10;70.30;;;;;;5034135;28;20494;-52
2023/06/12 08:11:46;;;;;;;5.30;4.80;;;30.70;69.90;;;;;;5032924;28;20071;-57
2023/06/12 08:14:11;;;;;;;5.45;5.00;;;30.70;69.70;;;;;;5020035;28;20072;-55
2023/06/12 08:16:37;;;;;;;5.32;4.82;;;30.60;70.00;;;;;;5011405;28;20137;-49
2023/06/12 08:19:03;;;;;;;6.77;4.73;;;29.90;70.10;;;;;;5012006;28;20038;-49
2023/06/12 08:21:29;;;;;;;6.70;5.30;;;29.60;71.10;;;;;;5011707;28;20026;-50
2023/06/12 08:23:54;;;;;;;5.15;4.60;;;29.90;71.60;;;;;;5011596;28;20113;-49
2023/06/12 08:26:20;;;;;;;10.15;6.70;;;29.70;71.60;;;;;;5011957;28;20025;-51
2023/06/12 08:28:49;;;;;;;7.47;4.78;;;29.10;71.80;;;;;;5012176;28;20022;-54
2023/06/12 08:31:15;;;;;;;6.35;4.50;;;28.20;73.20;;;;;;5012277;28;20029;-50
2023/06/12 08:33:41;;;;;;;7.63;4.75;;;28.10;74.40;;;;;;4995097;28;20455;-49
2023/06/12 08:36:07;;;;;;;5.65;4.85;;;28.00;74.80;;;;;;5012003;28;20033;-49
2023/06/12 08:38:32;;;;;;;7.55;5.35;;;27.90;75.10;;;;;;5012157;28;20025;-50
2023/06/12 08:41:00;;;;;;;12.18;5.43;;;27.90;75.20;;;;;;5011945;28;20033;-50
2023/06/12 08:43:28;;;;;;;9.75;5.70;;;28.20;75.30;;;;;;5011312;28;20122;-47
2023/06/12 08:45:56;;;;;;;5.20;4.70;;;28.60;75.10;;;;;;5011562;28;20055;-50
2023/06/12 08:48:25;;;;;;;9.18;5.10;;;28.60;74.00;;;;;;5011811;28;20034;-48
2023/06/12 08:50:52;;;;;;;4.93;4.53;;;28.70;74.60;;;;;;5012590;28;20024;-47
2023/06/12 08:53:17;;;;;;;5.95;4.82;;;29.00;73.80;;;;;;5011793;28;20495;-48
2023/06/12 08:55:44;;;;;;;5.07;4.57;;;28.70;73.80;;;;;;5011640;28;20042;-47
2023/06/12 08:58:10;;;;;;;12.07;5.28;;;28.30;74.80;;;;;;5011983;28;20026;-48
2023/06/12 09:00:36;;;;;;;6.20;4.75;;;28.50;74.90;;;;;;5012810;28;20026;-47
2023/06/12 09:03:06;;;;;;;7.47;4.80;;;28.20;75.40;;;;;;5012021;28;20505;-47
2023/06/12 09:05:33;;;;;;;4.70;4.20;;;28.20;75.40;;;;;;5012236;28;20087;-51
2023/06/12 09:08:00;;;;;;;5.30;4.82;;;28.00;75.50;;;;;;5011309;28;20030;-54
2023/06/12 09:10:26;;;;;;;6.38;4.68;;;28.00;75.70;;;;;;4994132;28;20022;-48
2023/06/12 09:12:55;;;;;;;5.20;4.40;;;28.30;76.00;;;;;;5011322;28;20402;-50
2023/06/12 09:15:22;;;;;;;6.05;4.63;;;28.30;74.10;;;;;;5011308;28;20029;-51
2023/06/12 09:17:49;;;;;;;6.97;5.10;;;27.90;74.40;;;;;;5011521;28;20040;-48
2023/06/12 09:20:21;;;;;;;4.85;4.32;;;27.50;75.20;;;;;;5011530;28;20108;-48
2023/06/12 09:22:51;;;;;;;9.60;4.90;;;27.50;75.40;;;;;;5013330;28;20033;-47
2023/06/12 09:25:17;;;;;;;4.90;4.40;;;27.30;75.40;;;;;;5014966;28;20036;-51
2023/06/12 09:27:45;;;;;;;6.53;5.40;;;27.20;76.20;;;;;;4996960;28;20458;-51
2023/06/12 09:30:11;;;;;;;5.13;4.55;;;27.30;79.00;;;;;;5015319;28;20046;-53
2023/06/12 09:32:37;;;;;;;5.45;4.88;;;27.20;76.10;;;;;;5015136;28;20061;-52
2023/06/12 09:35:03;;;;;;;5.45;5.05;;;27.20;76.00;;;;;;5015000;28;20068;-52
2023/06/12 09:37:29;;;;;;;7.35;4.82;;;27.00;76.20;;;;;;5015125;28;20026;-52
2023/06/12 09:40:13;;;;;;;5.53;4.97;;;27.10;76.10;;;;;;5015412;28;20030;-52
2023/06/12 09:42:39;;;;;;;5.40;4.90;;;27.10;74.50;;;;;;5013762;28;20033;-52
2023/06/12 09:45:13;;;;;;;5.47;4.97;;;27.20;75.50;;;;;;5012542;28;20029;-48
2023/06/12 09:47:46;;;;;;;6.55;5.35;;;27.10;75.50;;;;;;5015015;28;20429;-46
2023/06/12 09:50:13;;;;;;;7.63;5.10;;;27.20;75.60;;;;;;5015160;28;20386;-49
2023/06/12 09:52:43;;;;;;;6.40;5.80;;;27.10;75.20;;;;;;5014243;28;20030;-50
2023/06/12 09:55:11;;;;;;;7.10;5.95;;;26.90;75.20;;;;;;5014064;28;20462;-47
2023/06/12 09:57:38;;;;;;;10.55;5.90;;;26.90;75.20;;;;;;5014437;28;20026;-52
2023/06/12 10:00:07;;;;;;;5.55;5.05;;;27.00;75.50;;;;;;5013060;28;20510;-51
2023/06/12 10:02:33;;;;;;;8.50;5.10;;;27.20;75.70;;;;;;5007979;28;20033;-49
2023/06/12 10:05:19;;;;;;;6.10;4.88;;;27.40;74.10;;;;;;5013506;28;20497;-47
2023/06/12 10:07:48;;;;;;;32.65;27.85;;;27.70;74.10;;;;;;5010105;28;20064;-48
2023/06/12 10:10:15;;;;;;;6.93;6.30;;;27.40;74.70;;;;;;5013023;28;20022;-52
2023/06/12 10:12:42;;;;;;;10.20;5.20;;;27.00;73.50;;;;;;5012244;28;20021;-51
2023/06/12 10:15:08;;;;;;;8.50;5.72;;;26.60;74.60;;;;;;5014129;28;20022;-53
2023/06/12 10:17:35;;;;;;;12.85;5.40;;;26.70;75.00;;;;;;5014518;28;20037;-54
2023/06/12 10:20:08;;;;;;;6.80;5.43;;;26.70;75.60;;;;;;5014540;28;20481;-50
2023/06/12 10:22:34;;;;;;;10.50;5.32;;;26.70;75.40;;;;;;5012989;28;20034;-50
2023/06/12 10:25:01;;;;;;;6.22;5.60;;;26.40;74.70;;;;;;5014085;28;20305;-50
2023/06/12 10:27:28;;;;;;;6.40;5.85;;;26.50;74.90;;;;;;4996551;28;20029;-53
2023/06/12 10:29:58;;;;;;;5.70;5.20;;;26.40;75.00;;;;;;5013886;28;20113;-53
2023/06/12 10:32:24;;;;;;;6.72;5.70;;;26.40;75.80;;;;;;5014233;28;20034;-54
2023/06/12 10:34:53;;;;;;;6.70;5.10;;;26.40;76.20;;;;;;5013154;28;20156;-54
2023/06/12 10:37:25;;;;;;;5.80;5.20;;;26.50;76.10;;;;;;5007935;28;20152;-53
2023/06/12 10:40:15;;;;;;;5.45;4.95;;;26.70;73.90;;;;;;5013395;28;20397;-57
2023/06/12 10:42:47;;;;;;;6.22;5.35;;;26.90;73.30;;;;;;5012561;28;20080;-56
2023/06/12 10:45:19;;;;;;;7.15;5.40;;;26.80;72.80;;;;;;5013355;28;20440;-50
2023/06/12 10:48:02;;;;;;;16.95;5.85;;;26.90;72.30;;;;;;5013800;28;20033;-54
2023/06/12 10:50:29;;;;;;;8.73;4.97;;;27.20;72.10;;;;;;5007507;28;20520;-54
2023/06/12 10:52:56;;;;;;;6.55;5.25;;;27.10;69.80;;;;;;5013568;28;20381;-54
2023/06/12 10:55:29;;;;;;;5.47;5.00;;;27.00;70.20;;;;;;5013570;28;20018;-54
2023/06/12 10:57:57;;;;;;;5.38;4.65;;;26.90;70.90;;;;;;5012211;28;20026;-57
2023/06/12 11:00:28;;;;;;;9.50;5.63;;;26.80;69.90;;;;;;5011886;28;20120;-56
2023/06/12 11:02:59;;;;;;;7.32;4.65;;;26.50;69.80;;;;;;5013259;28;20034;-54
2023/06/12 11:05:29;;;;;;;8.20;5.78;;;26.40;69.70;;;;;;5013154;28;20030;-49
2023/06/12 11:07:57;;;;;;;8.48;5.40;;;26.10;70.20;;;;;;5013364;28;20352;-55
2023/06/12 11:10:22;;;;;;;8.32;5.43;;;26.00;70.50;;;;;;5013509;28;20021;-53
2023/06/12 11:12:49;;;;;;;8.80;6.13;;;25.90;70.20;;;;;;5013353;28;20497;-52
2023/06/12 11:15:15;;;;;;;7.85;5.32;;;25.90;71.90;;;;;;5012960;28;20037;-50
2023/06/12 11:17:42;;;;;;;8.63;5.38;;;25.90;69.70;;;;;;5027355;22;20030;-45
2023/06/12 11:20:09;;;;;;;6.45;5.35;;;25.80;71.80;;;;;;5033705;28;20045;-41
2023/06/12 11:22:35;;;;;;;8.50;5.53;;;26.00;72.30;;;;;;5043739;28;20554;-44
2023/06/12 11:25:02;;;;;;;7.57;4.43;;;26.20;70.40;;;;;;5052027;28;20114;-47
2023/06/12 11:27:28;;;;;;;7.70;4.35;;;26.20;70.40;;;;;;5052155;28;20024;-45
2023/06/12 11:29:53;;;;;;;7.65;5.82;;;26.30;70.10;;;;;;5050067;28;20075;-46
2023/06/12 11:32:20;;;;;;;5.38;4.88;;;26.30;70.30;;;;;;5051124;28;20118;-41
2023/06/12 11:34:46;;;;;;;6.15;5.55;;;26.10;68.50;;;;;;5051239;28;20024;-44
2023/06/12 11:37:16;;;;;;;6.05;5.45;;;26.00;68.20;;;;;;5051670;28;20108;-40
2023/06/12 11:39:42;;;;;;;7.57;5.15;;;26.00;69.60;;;;;;5051824;28;20021;-44
2023/06/12 11:42:08;;;;;;;6.15;5.40;;;26.00;68.50;;;;;;5049129;28;20036;-43
2023/06/12 11:44:34;;;;;;;9.02;5.03;;;26.00;68.90;;;;;;5051083;28;20104;-51
2023/06/12 11:47:00;;;;;;;9.75;5.78;;;26.10;67.80;;;;;;5051362;28;20097;-46
2023/06/12 11:49:25;;;;;;;6.85;5.55;;;26.20;67.80;;;;;;5051370;28;20021;-41
2023/06/12 11:51:52;;;;;;;5.93;5.18;;;26.10;67.40;;;;;;5051678;28;20021;-46
2023/06/12 11:54:17;;;;;;;7.10;5.43;;;26.10;67.90;;;;;;5051859;28;20021;-42
2023/06/12 11:56:43;;;;;;;7.03;5.25;;;26.20;67.90;;;;;;5051435;28;20548;-44
2023/06/12 11:59:09;;;;;;;6.57;5.10;;;26.30;67.60;;;;;;5052258;28;20029;-43
2023/06/12 12:01:38;;;;;;;8.68;4.63;;;26.40;67.20;;;;;;5051149;28;20066;-44
2023/06/12 12:04:05;;;;;;;5.95;5.35;;;26.40;67.20;;;;;;5051436;28;20019;-51
2023/06/12 12:06:31;;;;;;;7.28;5.35;;;26.40;68.10;;;;;;5051548;28;20059;-48
2023/06/12 12:08:58;;;;;;;7.75;4.90;;;26.60;67.80;;;;;;5051592;28;20044;-45
2023/06/12 12:11:29;;;;;;;10.52;5.97;;;26.60;67.20;;;;;;5051487;28;20467;-45
2023/06/12 12:14:04;;;;;;;8.45;5.05;;;26.60;68.20;;;;;;5051157;28;20472;-44
2023/06/12 12:16:36;;;;;;;;;;;26.70;68.50;;;;;;5046393;28;20029;-45
2023/06/12 12:19:14;;;;;;;6.20;5.40;;;26.70;67.90;;;;;;5046912;28;19920;-44
2023/06/12 12:21:46;;;;;;;5.45;4.93;;;26.80;67.50;;;;;;5048591;28;20115;-42
2023/06/12 12:24:12;;;;;;;8.55;5.40;;;26.90;67.90;;;;;;5050773;28;20056;-44
2023/06/12 12:26:47;;;;;;;6.57;5.18;;;27.00;68.10;;;;;;5051639;28;20520;-45
2023/06/12 12:29:13;;;;;;;5.97;5.13;;;27.10;67.70;;;;;;5051294;28;20028;-47
2023/06/12 12:31:39;;;;;;;12.55;5.82;;;27.10;66.50;;;;;;5047135;28;20025;-43
2023/06/12 12:34:04;;;;;;;9.05;5.10;;;27.00;67.40;;;;;;5051062;28;20523;-45
2023/06/12 12:36:30;;;;;;;5.95;4.88;;;27.20;68.10;;;;;;5051256;28;20036;-43
2023/06/12 12:38:55;;;;;;;9.63;4.97;;;27.10;66.30;;;;;;5051149;28;20036;-46
2023/06/12 12:41:21;;;;;;;7.72;4.97;;;27.00;67.40;;;;;;5050612;28;20036;-47
2023/06/12 12:43:47;;;;;;;5.25;4.78;;;27.00;67.30;;;;;;5032439;28;20033;-47
2023/06/12 12:46:13;;;;;;;9.05;5.28;;;26.90;67.00;;;;;;5050670;28;20112;-41